Time;durP1;ratioP1;P1;durP2;ratioP2;P2;SDS_P1;SDS_P2;PMS_P1;PMS_P2;Temp;Humidity;BMP_temperature;BMP_pressure;BME280_temperature;BME280_humidity;BME280_pressure;Samples;Min_cycle;Max_cycle;Signal;HPM_P1;HPM_P2
2021/06/06 00:00:06;;;;;;;8.70;2.88;;;;;;;;;;5005993;28;20056;-65
2021/06/06 00:02:32;;;;;;;5.05;2.67;;;;;;;;;;5007003;28;20036;-65
2021/06/06 00:04:58;;;;;;;5.78;2.47;;;;;;;;;;5002132;28;20153;-62
2021/06/06 00:07:25;;;;;;;4.07;2.28;;;;;;;;;;5008070;28;20042;-63
2021/06/06 00:09:51;;;;;;;4.47;2.53;;;;;;;;;;5007575;28;20037;-64
2021/06/06 00:12:17;;;;;;;5.57;2.60;;;;;;;;;;5010668;28;20030;-62
2021/06/06 00:14:43;;;;;;;3.42;2.15;;;;;;;;;;5004223;28;20391;-63
2021/06/06 00:17:10;;;;;;;4.68;2.38;;;;;;;;;;5005748;28;20029;-64
2021/06/06 00:19:37;;;;;;;5.25;2.15;;;;;;;;;;5004888;28;20040;-63
2021/06/06 00:22:04;;;;;;;4.70;2.70;;;;;;;;;;5005151;28;20357;-63
2021/06/06 00:24:32;;;;;;;4.82;2.35;;;;;;;;;;5004834;28;20025;-63
2021/06/06 00:26:58;;;;;;;2.30;2.10;;;;;;;;;;5007938;28;20018;-63
2021/06/06 00:29:24;;;;;;;2.88;2.58;;;;;;;;;;5009472;28;20030;-62
2021/06/06 00:31:50;;;;;;;4.45;2.47;;;;;;;;;;5008181;28;20499;-63
2021/06/06 00:34:17;;;;;;;7.15;3.10;;;;;;;;;;5009761;28;20377;-63
2021/06/06 00:36:43;;;;;;;2.45;2.25;;;;;;;;;;5007398;28;20037;-63
2021/06/06 00:39:09;;;;;;;7.95;2.90;;;;;;;;;;5005151;28;20109;-63
2021/06/06 00:41:37;;;;;;;2.83;2.28;;;;;;;;;;5008183;28;20029;-62
2021/06/06 00:44:04;;;;;;;4.10;2.13;;;;;;;;;;5015870;28;20481;-62
2021/06/06 00:46:30;;;;;;;3.47;2.20;;;;;;;;;;5007167;28;20035;-62
2021/06/06 00:48:58;;;;;;;5.90;3.00;;;;;;;;;;5004992;28;20404;-63
2021/06/06 00:51:50;;;;;;;4.57;2.42;;;;;;;;;;5006608;28;20099;-62
2021/06/06 00:54:22;;;;;;;4.47;2.45;;;;;;;;;;4998372;28;20054;-62
2021/06/06 00:56:49;;;;;;;3.85;2.97;;;;;;;;;;5007061;28;20037;-62
2021/06/06 00:59:18;;;;;;;3.47;2.22;;;;;;;;;;5007850;28;20077;-61
2021/06/06 01:01:44;;;;;;;3.33;2.38;;;;;;;;;;5004868;28;20130;-62
2021/06/06 01:04:10;;;;;;;6.30;2.75;;;;;;;;;;5008155;28;20523;-61
2021/06/06 01:06:45;;;;;;;3.72;2.67;;;;;;;;;;5007725;28;20529;-62
2021/06/06 01:09:11;;;;;;;3.28;2.22;;;;;;;;;;5010749;28;20029;-62
2021/06/06 01:11:56;;;;;;;7.35;2.75;;;;;;;;;;5012157;28;20291;-61
2021/06/06 01:14:26;;;;;;;4.60;2.22;;;;;;;;;;5011885;28;20455;-61
2021/06/06 01:16:56;;;;;;;5.30;2.40;;;;;;;;;;5008495;28;20025;-62
2021/06/06 01:19:28;;;;;;;6.20;2.80;;;;;;;;;;5007262;28;20053;-62
2021/06/06 01:22:19;;;;;;;6.65;3.75;;;;;;;;;;5014217;28;20377;-63
2021/06/06 01:24:51;;;;;;;3.45;2.67;;;;;;;;;;5008429;28;20029;-62
2021/06/06 01:27:22;;;;;;;5.15;2.92;;;;;;;;;;5012324;28;20076;-62
2021/06/06 01:29:55;;;;;;;9.60;4.07;;;;;;;;;;5012042;28;20045;-62
2021/06/06 01:32:23;;;;;;;4.10;2.90;;;;;;;;;;5008341;28;20030;-63
2021/06/06 01:35:03;;;;;;;2.92;2.08;;;;;;;;;;5010740;28;20065;-63
2021/06/06 01:37:30;;;;;;;6.50;2.97;;;;;;;;;;5010741;28;20040;-62
2021/06/06 01:39:59;;;;;;;5.32;2.72;;;;;;;;;;5013781;28;20029;-62
2021/06/06 01:42:31;;;;;;;4.18;2.78;;;;;;;;;;5014109;28;20047;-63
2021/06/06 01:44:59;;;;;;;3.75;2.60;;;;;;;;;;5014116;28;20034;-63
2021/06/06 01:47:26;;;;;;;2.47;2.28;;;;;;;;;;5022964;28;20241;-62
2021/06/06 01:49:54;;;;;;;4.30;2.50;;;;;;;;;;5011393;28;20029;-61
2021/06/06 01:52:21;;;;;;;4.97;2.50;;;;;;;;;;5009730;28;20172;-61
2021/06/06 01:54:47;;;;;;;8.80;3.00;;;;;;;;;;5009056;28;20040;-63
2021/06/06 01:57:15;;;;;;;4.00;2.55;;;;;;;;;;5007745;28;20036;-63
2021/06/06 01:59:44;;;;;;;5.90;2.50;;;;;;;;;;5009668;28;20463;-63
2021/06/06 02:02:11;;;;;;;5.90;2.40;;;;;;;;;;5010636;28;20025;-63
2021/06/06 02:04:37;;;;;;;5.57;2.72;;;;;;;;;;5008638;28;20024;-62
2021/06/06 02:07:03;;;;;;;3.58;2.40;;;;;;;;;;5006661;28;20065;-63
2021/06/06 02:09:32;;;;;;;4.10;2.58;;;;;;;;;;5006612;28;20041;-63
2021/06/06 02:12:00;;;;;;;4.32;2.55;;;;;;;;;;5007720;28;20389;-63
2021/06/06 02:14:29;;;;;;;6.93;2.85;;;;;;;;;;5009741;28;20065;-65
2021/06/06 02:16:56;;;;;;;5.88;2.63;;;;;;;;;;5007049;28;20362;-63
2021/06/06 02:19:25;;;;;;;3.90;2.70;;;;;;;;;;5006992;28;20096;-62
2021/06/06 02:21:54;;;;;;;3.42;2.63;;;;;;;;;;5007021;28;20061;-62
2021/06/06 02:24:21;;;;;;;5.63;2.92;;;;;;;;;;5009997;28;20038;-62
2021/06/06 02:26:52;;;;;;;3.10;2.75;;;;;;;;;;5008705;28;20029;-63
2021/06/06 02:29:32;;;;;;;4.72;2.33;;;;;;;;;;5012157;28;20069;-63
2021/06/06 02:32:01;;;;;;;4.30;2.53;;;;;;;;;;5006315;28;20056;-62
2021/06/06 02:34:31;;;;;;;2.83;2.38;;;;;;;;;;5009449;28;20038;-63
2021/06/06 02:37:05;;;;;;;3.13;2.50;;;;;;;;;;5007555;28;20035;-63
2021/06/06 02:39:34;;;;;;;2.75;2.17;;;;;;;;;;5008728;28;20037;-62
2021/06/06 02:42:06;;;;;;;2.75;2.50;;;;;;;;;;5011648;28;20098;-63
2021/06/06 02:44:53;;;;;;;4.72;2.83;;;;;;;;;;5011165;28;20396;-62
2021/06/06 02:47:27;;;;;;;3.80;2.22;;;;;;;;;;5010745;28;20037;-62
2021/06/06 02:49:54;;;;;;;3.25;2.20;;;;;;;;;;5008157;28;20063;-61
2021/06/06 02:52:23;;;;;;;4.60;2.90;;;;;;;;;;5008370;28;20029;-62
2021/06/06 02:54:55;;;;;;;4.25;2.50;;;;;;;;;;5007693;28;20513;-61
2021/06/06 02:57:22;;;;;;;2.67;2.47;;;;;;;;;;5009469;28;20029;-61
2021/06/06 03:00:00;;;;;;;3.35;2.38;;;;;;;;;;5006758;28;20041;-62
2021/06/06 03:02:28;;;;;;;5.35;2.63;;;;;;;;;;5009003;28;20044;-62
2021/06/06 03:04:57;;;;;;;2.78;2.58;;;;;;;;;;5006756;28;20446;-62
2021/06/06 03:07:25;;;;;;;5.57;2.67;;;;;;;;;;5005463;28;20440;-64
2021/06/06 03:09:52;;;;;;;4.40;2.60;;;;;;;;;;5009292;28;20570;-64
2021/06/06 03:12:19;;;;;;;3.05;2.42;;;;;;;;;;5008079;28;20088;-64
2021/06/06 03:14:46;;;;;;;5.13;2.70;;;;;;;;;;5008103;28;20046;-63
2021/06/06 03:17:22;;;;;;;2.92;2.47;;;;;;;;;;5011560;28;20044;-64
2021/06/06 03:19:49;;;;;;;4.85;2.70;;;;;;;;;;5008453;28;20033;-64
2021/06/06 03:22:20;;;;;;;4.07;2.53;;;;;;;;;;5005208;28;20812;-63
2021/06/06 03:24:51;;;;;;;6.05;2.35;;;;;;;;;;5007284;28;20041;-64
2021/06/06 03:27:18;;;;;;;2.90;2.70;;;;;;;;;;5009893;28;20126;-63
2021/06/06 03:29:50;;;;;;;2.67;2.47;;;;;;;;;;5007709;28;20030;-63
2021/06/06 03:32:18;;;;;;;2.72;2.20;;;;;;;;;;5007944;28;20053;-63
2021/06/06 03:34:44;;;;;;;5.50;2.45;;;;;;;;;;5004451;28;20076;-64
2021/06/06 03:37:10;;;;;;;3.50;2.35;;;;;;;;;;5004288;28;20060;-64
2021/06/06 03:39:36;;;;;;;5.28;2.10;;;;;;;;;;5008146;28;20087;-63
2021/06/06 03:42:02;;;;;;;2.35;2.15;;;;;;;;;;5009951;28;20041;-62
2021/06/06 03:44:29;;;;;;;3.40;2.55;;;;;;;;;;5007495;28;20749;-63
2021/06/06 03:46:56;;;;;;;2.72;2.50;;;;;;;;;;5013079;28;20557;-64
2021/06/06 03:49:24;;;;;;;2.53;2.33;;;;;;;;;;5010609;28;20112;-63
2021/06/06 03:51:50;;;;;;;3.30;2.85;;;;;;;;;;5009313;28;20050;-64
2021/06/06 03:54:17;;;;;;;2.75;2.53;;;;;;;;;;5009312;28;20099;-63
2021/06/06 03:56:44;;;;;;;2.30;2.00;;;;;;;;;;5006954;28;20026;-63
2021/06/06 03:59:14;;;;;;;2.42;2.20;;;;;;;;;;5009907;28;20075;-63
2021/06/06 04:01:40;;;;;;;3.38;2.10;;;;;;;;;;5011850;28;20072;-63
2021/06/06 04:04:06;;;;;;;3.00;2.30;;;;;;;;;;5009330;28;20026;-63
2021/06/06 04:06:32;;;;;;;2.42;1.95;;;;;;;;;;5007446;28;20184;-63
2021/06/06 04:08:58;;;;;;;4.70;2.13;;;;;;;;;;5008088;28;20037;-63
2021/06/06 04:11:25;;;;;;;2.30;2.10;;;;;;;;;;5007305;28;20030;-63
2021/06/06 04:13:51;;;;;;;4.10;2.10;;;;;;;;;;5009783;28;20083;-62
2021/06/06 04:16:18;;;;;;;2.47;2.28;;;;;;;;;;5006199;28;20034;-63
2021/06/06 04:18:44;;;;;;;4.05;2.13;;;;;;;;;;5011853;28;20029;-64
2021/06/06 04:21:15;;;;;;;5.50;1.70;;;;;;;;;;5008596;28;20174;-63
2021/06/06 04:23:41;;;;;;;2.92;2.20;;;;;;;;;;5005591;28;20040;-63
2021/06/06 04:26:07;;;;;;;4.57;2.50;;;;;;;;;;5003491;28;20141;-63
2021/06/06 04:28:34;;;;;;;5.18;2.20;;;;;;;;;;5010017;28;20038;-62
2021/06/06 04:31:00;;;;;;;2.72;2.10;;;;;;;;;;5007952;28;20072;-63
2021/06/06 04:33:26;;;;;;;2.67;2.13;;;;;;;;;;5006655;28;20362;-63
2021/06/06 04:35:53;;;;;;;4.07;1.90;;;;;;;;;;5010458;28;20492;-63
2021/06/06 04:38:20;;;;;;;3.33;2.33;;;;;;;;;;5004725;28;20038;-63
2021/06/06 04:40:47;;;;;;;3.35;1.85;;;;;;;;;;5005464;28;20117;-62
2021/06/06 04:43:13;;;;;;;2.85;2.10;;;;;;;;;;5007201;28;20040;-64
2021/06/06 04:45:39;;;;;;;6.20;2.05;;;;;;;;;;5005323;28;20030;-61
2021/06/06 04:48:10;;;;;;;4.82;2.97;;;;;;;;;;5003906;28;20026;-63
2021/06/06 04:50:36;;;;;;;2.50;1.90;;;;;;;;;;5010774;28;20041;-67
2021/06/06 04:53:02;;;;;;;3.90;1.90;;;;;;;;;;5004833;28;20622;-66
2021/06/06 04:55:28;;;;;;;2.35;2.05;;;;;;;;;;5008199;28;20041;-67
2021/06/06 04:57:54;;;;;;;3.60;2.03;;;;;;;;;;5010493;28;20018;-65
2021/06/06 05:00:23;;;;;;;2.83;2.50;;;;;;;;;;5000537;28;20036;-65
2021/06/06 05:02:50;;;;;;;4.20;2.03;;;;;;;;;;5007863;28;20030;-64
2021/06/06 05:05:16;;;;;;;3.80;2.10;;;;;;;;;;5006843;28;20038;-66
2021/06/06 05:07:43;;;;;;;4.40;2.53;;;;;;;;;;5002992;28;20698;-64
2021/06/06 05:10:09;;;;;;;4.80;1.85;;;;;;;;;;5007021;28;20116;-62
2021/06/06 05:12:44;;;;;;;8.90;1.80;;;;;;;;;;5003936;28;20029;-62
2021/06/06 05:15:10;;;;;;;2.40;2.03;;;;;;;;;;5001870;28;20614;-63
2021/06/06 05:17:36;;;;;;;2.22;1.80;;;;;;;;;;5006665;28;20029;-62
2021/06/06 05:20:04;;;;;;;5.55;1.83;;;;;;;;;;5008570;28;20025;-60
2021/06/06 05:22:30;;;;;;;2.70;1.85;;;;;;;;;;5005319;28;20547;-60
2021/06/06 05:24:56;;;;;;;2.47;1.70;;;;;;;;;;5006304;28;20773;-60
2021/06/06 05:27:23;;;;;;;3.17;1.58;;;;;;;;;;5009308;28;20118;-59
2021/06/06 05:29:49;;;;;;;8.70;2.17;;;;;;;;;;5011868;28;20084;-59
2021/06/06 05:32:15;;;;;;;3.10;1.55;;;;;;;;;;5012951;28;20033;-58
2021/06/06 05:34:43;;;;;;;5.72;1.80;;;;;;;;;;5014055;28;20056;-59
2021/06/06 05:37:09;;;;;;;4.53;1.70;;;;;;;;;;5013126;28;20099;-59
2021/06/06 05:39:36;;;;;;;1.90;1.70;;;;;;;;;;5014362;28;20443;-59
2021/06/06 05:42:02;;;;;;;1.70;1.60;;;;;;;;;;5014108;28;20059;-59
2021/06/06 05:44:28;;;;;;;3.40;1.70;;;;;;;;;;5014621;28;20385;-59
2021/06/06 05:46:54;;;;;;;3.05;1.55;;;;;;;;;;5012194;28;20029;-59
2021/06/06 05:49:20;;;;;;;2.25;1.95;;;;;;;;;;5014053;28;20029;-59
2021/06/06 05:51:46;;;;;;;5.97;2.03;;;;;;;;;;5015422;28;20041;-59
2021/06/06 05:54:12;;;;;;;2.20;1.45;;;;;;;;;;5016378;28;20512;-59
2021/06/06 05:56:38;;;;;;;5.32;2.20;;;;;;;;;;5017144;28;20022;-59
2021/06/06 05:59:04;;;;;;;7.85;1.80;;;;;;;;;;5013625;28;20041;-59
2021/06/06 06:01:31;;;;;;;4.85;2.33;;;;;;;;;;5016279;28;20435;-58
2021/06/06 06:03:57;;;;;;;1.98;1.80;;;;;;;;;;5016262;28;20167;-58
2021/06/06 06:06:23;;;;;;;8.27;1.98;;;;;;;;;;5013740;28;20026;-56
2021/06/06 06:08:49;;;;;;;4.65;1.60;;;;;;;;;;5011873;28;20053;-57
2021/06/06 06:11:18;;;;;;;4.63;2.13;;;;;;;;;;5009675;28;20024;-57
2021/06/06 06:13:44;;;;;;;2.70;1.50;;;;;;;;;;5011415;28;20050;-57
2021/06/06 06:16:11;;;;;;;3.72;1.50;;;;;;;;;;5006545;28;20038;-56
2021/06/06 06:18:38;;;;;;;3.88;1.80;;;;;;;;;;5010982;28;20640;-57
2021/06/06 06:21:05;;;;;;;4.85;1.70;;;;;;;;;;5010335;28;20040;-57
2021/06/06 06:23:32;;;;;;;2.92;1.90;;;;;;;;;;5005900;28;20381;-57
2021/06/06 06:25:58;;;;;;;3.13;2.03;;;;;;;;;;5011046;28;20026;-57
2021/06/06 06:28:25;;;;;;;4.63;2.28;;;;;;;;;;5010741;28;20036;-59
2021/06/06 06:30:51;;;;;;;2.28;1.88;;;;;;;;;;5009567;28;20029;-58
2021/06/06 06:33:17;;;;;;;3.78;1.90;;;;;;;;;;5009639;28;20451;-61
2021/06/06 06:35:44;;;;;;;4.22;1.70;;;;;;;;;;5007231;28;20033;-63
2021/06/06 06:38:10;;;;;;;2.40;1.50;;;;;;;;;;5009118;28;20655;-62
2021/06/06 06:40:37;;;;;;;3.35;1.67;;;;;;;;;;5015331;28;20034;-61
2021/06/06 06:43:04;;;;;;;10.85;1.85;;;;;;;;;;5014989;28;20431;-61
2021/06/06 06:45:32;;;;;;;13.38;1.92;;;;;;;;;;5016437;28;20018;-61
2021/06/06 06:48:03;;;;;;;4.45;2.10;;;;;;;;;;5014565;28;20393;-61
2021/06/06 06:50:29;;;;;;;7.32;2.22;;;;;;;;;;5012292;28;20028;-60
2021/06/06 06:52:57;;;;;;;13.13;1.98;;;;;;;;;;5011964;28;20040;-60
2021/06/06 06:55:23;;;;;;;3.35;1.60;;;;;;;;;;5015165;28;20037;-67
2021/06/06 06:57:49;;;;;;;6.60;2.22;;;;;;;;;;5015860;28;20017;-65
2021/06/06 07:00:20;;;;;;;2.35;1.30;;;;;;;;;;5014431;28;20136;-65
2021/06/06 07:02:47;;;;;;;3.85;1.95;;;;;;;;;;5010112;28;20056;-61
2021/06/06 07:05:13;;;;;;;4.35;1.90;;;;;;;;;;5009010;28;20030;-62
2021/06/06 07:07:39;;;;;;;2.13;1.63;;;;;;;;;;5009827;28;20046;-62
2021/06/06 07:10:06;;;;;;;3.40;1.73;;;;;;;;;;5012092;28;20523;-70
2021/06/06 07:12:33;;;;;;;3.40;1.40;;;;;;;;;;5013275;28;20042;-73
2021/06/06 07:14:59;;;;;;;5.47;2.05;;;;;;;;;;5012838;28;20049;-63
2021/06/06 07:17:25;;;;;;;3.97;1.90;;;;;;;;;;5013642;28;20124;-63
2021/06/06 07:19:52;;;;;;;1.90;1.67;;;;;;;;;;5016020;28;20029;-64
2021/06/06 07:22:19;;;;;;;6.13;1.88;;;;;;;;;;5011278;28;20177;-63
2021/06/06 07:24:46;;;;;;;2.78;1.50;;;;;;;;;;5009790;28;20021;-65
2021/06/06 07:27:12;;;;;;;2.15;1.60;;;;;;;;;;5007392;28;20029;-62
2021/06/06 07:29:39;;;;;;;4.07;1.25;;;;;;;;;;5004469;28;20096;-64
2021/06/06 07:32:05;;;;;;;4.70;1.70;;;;;;;;;;5012667;28;20028;-63
2021/06/06 07:34:32;;;;;;;2.85;1.40;;;;;;;;;;5011156;28;20041;-63
2021/06/06 07:37:03;;;;;;;7.93;1.50;;;;;;;;;;5003960;28;20108;-62
2021/06/06 07:39:30;;;;;;;6.47;1.90;;;;;;;;;;5010180;28;20461;-64
2021/06/06 07:41:56;;;;;;;5.10;1.38;;;;;;;;;;5011981;28;20132;-61
2021/06/06 07:44:22;;;;;;;2.97;2.00;;;;;;;;;;5014126;28;20060;-61
2021/06/06 07:46:49;;;;;;;2.05;1.70;;;;;;;;;;5013022;28;20181;-60
2021/06/06 07:49:15;;;;;;;4.05;1.92;;;;;;;;;;5014822;28;20476;-59
2021/06/06 07:51:41;;;;;;;2.67;1.48;;;;;;;;;;5010435;28;20156;-60
2021/06/06 07:54:08;;;;;;;7.20;2.00;;;;;;;;;;5009509;28;20041;-60
2021/06/06 07:56:34;;;;;;;8.90;1.98;;;;;;;;;;5009945;28;20044;-59
2021/06/06 07:59:00;;;;;;;5.63;1.88;;;;;;;;;;5009168;28;20387;-59
2021/06/06 08:01:26;;;;;;;9.68;3.53;;;;;;;;;;5006155;28;20029;-60
2021/06/06 08:03:53;;;;;;;14.90;5.88;;;;;;;;;;5010673;28;20026;-58
2021/06/06 08:06:19;;;;;;;21.23;9.85;;;;;;;;;;5010369;28;20567;-60
2021/06/06 08:08:45;;;;;;;24.77;8.18;;;;;;;;;;5008066;28;20396;-59
2021/06/06 08:11:12;;;;;;;16.77;7.63;;;;;;;;;;5011593;28;20117;-59
2021/06/06 08:13:38;;;;;;;20.65;7.80;;;;;;;;;;5009399;28;20420;-59
2021/06/06 08:16:06;;;;;;;23.33;9.45;;;;;;;;;;5010796;28;20552;-59
2021/06/06 08:18:34;;;;;;;22.27;9.70;;;;;;;;;;5010133;28;20041;-57
2021/06/06 08:21:03;;;;;;;29.52;10.60;;;;;;;;;;5008698;28;20300;-60
2021/06/06 08:23:29;;;;;;;24.15;10.95;;;;;;;;;;5008258;28;20466;-60
2021/06/06 08:25:56;;;;;;;28.88;10.68;;;;;;;;;;5010764;28;20056;-59
2021/06/06 08:28:22;;;;;;;38.72;12.68;;;;;;;;;;5011034;28;20021;-57
2021/06/06 08:30:53;;;;;;;28.45;11.75;;;;;;;;;;5011773;28;20319;-59
2021/06/06 08:33:21;;;;;;;27.15;8.52;;;;;;;;;;5009312;28;20029;-58
2021/06/06 08:35:48;;;;;;;12.13;6.53;;;;;;;;;;5009708;28;20095;-58
2021/06/06 08:38:14;;;;;;;7.15;3.28;;;;;;;;;;4997972;28;20333;-60
2021/06/06 08:40:52;;;;;;;9.13;2.45;;;;;;;;;;5005477;28;20033;-58
2021/06/06 08:43:20;;;;;;;2.85;2.58;;;;;;;;;;5005609;28;20040;-57
2021/06/06 08:45:47;;;;;;;7.25;2.00;;;;;;;;;;5006914;28;20030;-57
2021/06/06 08:48:13;;;;;;;2.42;2.13;;;;;;;;;;5009919;28;20047;-58
2021/06/06 08:50:41;;;;;;;10.85;2.30;;;;;;;;;;5007625;28;20103;-58
2021/06/06 08:53:26;;;;;;;3.97;2.25;;;;;;;;;;5007589;28;20026;-58
2021/06/06 08:56:17;;;;;;;6.80;1.98;;;;;;;;;;5008282;28;20037;-60
2021/06/06 08:58:51;;;;;;;3.50;1.63;;;;;;;;;;5012080;28;20025;-60
2021/06/06 09:01:20;;;;;;;4.93;1.60;;;;;;;;;;5012688;28;20121;-58
2021/06/06 09:03:46;;;;;;;3.58;2.15;;;;;;;;;;5011148;28;20049;-58
2021/06/06 09:06:18;;;;;;;2.38;1.65;;;;;;;;;;5009260;28;20132;-57
2021/06/06 09:08:44;;;;;;;4.38;2.33;;;;;;;;;;5008877;28;20037;-59
2021/06/06 09:11:12;;;;;;;3.72;2.00;;;;;;;;;;5009606;28;20033;-60
2021/06/06 09:13:38;;;;;;;2.00;1.50;;;;;;;;;;5008817;28;20025;-59
2021/06/06 09:16:11;;;;;;;2.40;1.90;;;;;;;;;;5007789;28;20381;-60
2021/06/06 09:18:38;;;;;;;9.55;2.38;;;;;;;;;;5011012;28;20060;-60
2021/06/06 09:21:12;;;;;;;8.18;2.90;;;;;;;;;;5011288;28;20021;-59
2021/06/06 09:23:38;;;;;;;2.73;2.10;;;;;;;;;;5007581;28;20063;-61
2021/06/06 09:26:07;;;;;;;6.25;2.17;;;;;;;;;;5012545;28;20318;-59
2021/06/06 09:28:34;;;;;;;3.75;2.03;;;;;;;;;;5014394;28;20041;-59
2021/06/06 09:31:09;;;;;;;5.03;1.83;;;;;;;;;;5016902;28;20025;-60
2021/06/06 09:33:41;;;;;;;4.15;1.35;;;;;;;;;;5016064;28;20052;-61
2021/06/06 09:36:17;;;;;;;5.72;1.58;;;;;;;;;;5015897;28;20589;-59
2021/06/06 09:38:43;;;;;;;1.60;1.50;;;;;;;;;;5013494;28;20029;-59
2021/06/06 09:41:32;;;;;;;6.35;1.50;;;;;;;;;;5016614;28;20030;-60
2021/06/06 09:44:19;;;;;;;2.33;1.23;;;;;;;;;;5014345;28;20026;-59
2021/06/06 09:47:03;;;;;;;1.80;1.55;;;;;;;;;;5013522;28;20048;-59
2021/06/06 09:49:40;;;;;;;1.63;1.52;;;;;;;;;;5019126;28;20423;-60
2021/06/06 09:52:18;;;;;;;3.17;1.38;;;;;;;;;;5015629;28;20472;-60
2021/06/06 09:54:46;;;;;;;5.00;1.50;;;;;;;;;;5013493;28;20037;-58
2021/06/06 09:57:18;;;;;;;8.07;1.50;;;;;;;;;;5016209;28;20018;-59
2021/06/06 09:59:44;;;;;;;3.28;1.77;;;;;;;;;;5017071;28;20034;-59
2021/06/06 10:02:13;;;;;;;1.88;1.27;;;;;;;;;;5016487;28;20196;-62
2021/06/06 10:04:41;;;;;;;1.50;1.40;;;;;;;;;;5016492;28;20033;-59
2021/06/06 10:07:32;;;;;;;4.45;1.67;;;;;;;;;;5016550;28;20046;-59
2021/06/06 10:09:59;;;;;;;1.90;1.70;;;;;;;;;;5016298;28;20025;-59
2021/06/06 10:12:28;;;;;;;3.65;1.58;;;;;;;;;;5016653;28;20113;-59
2021/06/06 10:14:57;;;;;;;3.17;1.98;;;;;;;;;;5016844;28;20045;-60
2021/06/06 10:17:49;;;;;;;2.97;1.55;;;;;;;;;;5017724;28;20060;-60
2021/06/06 10:20:18;;;;;;;3.65;1.67;;;;;;;;;;5001765;28;21376;-59
2021/06/06 10:23:04;;;;;;;3.20;2.13;;;;;;;;;;5013910;28;20067;-59
2021/06/06 10:25:50;;;;;;;2.88;2.00;;;;;;;;;;5015482;28;20026;-57
2021/06/06 10:28:20;;;;;;;2.00;1.75;;;;;;;;;;5028791;28;20548;-57
2021/06/06 10:31:10;;;;;;;7.18;3.42;;;;;;;;;;5013239;28;20033;-57
2021/06/06 10:33:44;;;;;;;36.97;18.02;;;;;;;;;;5009162;28;20492;-58
2021/06/06 10:36:11;;;;;;;13.07;7.30;;;;;;;;;;5014758;28;20036;-58
2021/06/06 10:38:39;;;;;;;8.90;4.82;;;;;;;;;;5013082;28;20040;-58
2021/06/06 10:41:21;;;;;;;12.85;7.18;;;;;;;;;;5016068;28;20025;-58
2021/06/06 10:43:47;;;;;;;11.07;5.07;;;;;;;;;;5017847;28;20025;-57
2021/06/06 10:46:35;;;;;;;14.25;6.60;;;;;;;;;;5012701;28;20033;-59
2021/06/06 10:49:20;;;;;;;7.53;4.38;;;;;;;;;;5013379;28;20109;-59
2021/06/06 10:52:00;;;;;;;10.13;3.67;;;;;;;;;;5013218;28;20030;-59
2021/06/06 10:54:41;;;;;;;3.65;2.65;;;;;;;;;;5013381;28;20594;-59
2021/06/06 10:57:07;;;;;;;5.43;2.45;;;;;;;;;;5019908;28;20206;-61
2021/06/06 10:59:42;;;;;;;3.65;2.10;;;;;;;;;;5013088;28;20060;-63
2021/06/06 11:02:11;;;;;;;14.25;2.42;;;;;;;;;;5012343;28;20131;-59
2021/06/06 11:04:48;;;;;;;7.65;1.88;;;;;;;;;;5010633;28;20029;-59
2021/06/06 11:07:20;;;;;;;4.32;2.30;;;;;;;;;;5012022;28;20467;-60
2021/06/06 11:10:05;;;;;;;8.65;1.85;;;;;;;;;;5011052;28;20030;-60
2021/06/06 11:12:33;;;;;;;4.03;1.50;;;;;;;;;;5011803;28;20038;-59
2021/06/06 11:15:00;;;;;;;5.45;1.88;;;;;;;;;;5011600;28;20455;-58
2021/06/06 11:17:36;;;;;;;6.65;1.80;;;;;;;;;;5008763;28;20056;-59
2021/06/06 11:20:17;;;;;;;8.32;2.10;;;;;;;;;;5012412;28;20044;-59
2021/06/06 11:22:45;;;;;;;4.30;2.17;;;;;;;;;;5010776;28;20025;-60
2021/06/06 11:25:37;;;;;;;2.90;2.22;;;;;;;;;;5010229;28;20041;-62
2021/06/06 11:28:06;;;;;;;6.15;2.70;;;;;;;;;;5012600;28;20579;-59
2021/06/06 11:30:35;;;;;;;16.70;7.75;;;;;;;;;;5014768;28;20104;-60
2021/06/06 11:33:06;;;;;;;106.53;50.42;;;;;;;;;;5013652;28;20022;-60
2021/06/06 11:35:35;;;;;;;65.68;30.38;;;;;;;;;;5014679;28;20087;-60
2021/06/06 11:38:14;;;;;;;12.93;7.40;;;;;;;;;;5012315;28;20036;-61
2021/06/06 11:40:45;;;;;;;19.73;9.25;;;;;;;;;;5012681;28;20030;-59
2021/06/06 11:43:14;;;;;;;11.38;6.47;;;;;;;;;;5010849;28;20109;-60
2021/06/06 11:45:42;;;;;;;10.77;4.65;;;;;;;;;;5010711;28;20033;-59
2021/06/06 11:48:08;;;;;;;7.28;3.35;;;;;;;;;;5008543;28;20026;-63
2021/06/06 11:50:39;;;;;;;7.00;3.88;;;;;;;;;;5007974;28;20033;-61
2021/06/06 11:53:10;;;;;;;3.42;2.30;;;;;;;;;;5010442;28;20104;-62
2021/06/06 11:55:41;;;;;;;8.57;3.55;;;;;;;;;;5008900;28;20976;-60
2021/06/06 11:58:19;;;;;;;4.63;2.65;;;;;;;;;;5006209;28;20026;-59
2021/06/06 12:00:53;;;;;;;2.95;2.15;;;;;;;;;;5007744;28;20030;-61
2021/06/06 12:03:29;;;;;;;6.82;2.33;;;;;;;;;;5005446;28;20480;-64
2021/06/06 12:05:58;;;;;;;3.30;2.00;;;;;;;;;;4999541;28;20025;-62
2021/06/06 12:08:30;;;;;;;5.22;2.42;;;;;;;;;;5003584;28;20042;-65
2021/06/06 12:10:57;;;;;;;3.95;1.80;;;;;;;;;;5005769;28;20423;-65
2021/06/06 12:13:31;;;;;;;4.50;1.75;;;;;;;;;;5008410;28;20049;-67
2021/06/06 12:16:09;;;;;;;5.53;2.03;;;;;;;;;;5008077;28;20038;-63
2021/06/06 12:18:35;;;;;;;4.93;2.10;;;;;;;;;;5012993;28;20037;-64
2021/06/06 12:21:10;;;;;;;3.67;2.10;;;;;;;;;;5010857;28;20033;-64
2021/06/06 12:23:38;;;;;;;2.50;1.60;;;;;;;;;;5006183;28;20649;-64
2021/06/06 12:26:10;;;;;;;4.13;2.08;;;;;;;;;;5007022;28;20062;-64
2021/06/06 12:28:37;;;;;;;2.88;2.00;;;;;;;;;;5006355;28;20032;-61
2021/06/06 12:31:04;;;;;;;2.97;1.90;;;;;;;;;;5010207;28;20120;-63
2021/06/06 12:33:40;;;;;;;4.45;2.05;;;;;;;;;;5012023;28;20017;-64
2021/06/06 12:36:29;;;;;;;6.80;2.10;;;;;;;;;;5006859;28;20045;-63
2021/06/06 12:38:58;;;;;;;2.42;1.85;;;;;;;;;;4994925;28;20029;-64
2021/06/06 12:41:24;;;;;;;5.60;1.50;;;;;;;;;;5004367;28;20025;-62
2021/06/06 12:43:52;;;;;;;3.15;1.50;;;;;;;;;;5004111;28;20029;-62
2021/06/06 12:46:18;;;;;;;2.47;1.95;;;;;;;;;;5005627;28;20065;-63
2021/06/06 12:48:58;;;;;;;1.63;1.52;;;;;;;;;;5003577;28;20025;-62
2021/06/06 12:51:28;;;;;;;3.05;1.88;;;;;;;;;;5006603;28;20034;-61
2021/06/06 12:54:03;;;;;;;3.30;1.80;;;;;;;;;;5009838;28;20034;-62
2021/06/06 12:56:31;;;;;;;2.53;2.13;;;;;;;;;;5013801;28;20064;-65
2021/06/06 12:59:05;;;;;;;4.38;2.05;;;;;;;;;;5011904;28;20369;-63
2021/06/06 13:01:32;;;;;;;3.30;1.90;;;;;;;;;;5017597;28;20030;-62
2021/06/06 13:04:08;;;;;;;3.15;1.80;;;;;;;;;;5015753;28;20021;-63
2021/06/06 13:06:39;;;;;;;4.20;1.80;;;;;;;;;;5016676;28;20662;-70
2021/06/06 13:09:09;;;;;;;4.45;1.98;;;;;;;;;;5018460;28;20061;-59
2021/06/06 13:11:37;;;;;;;2.08;1.63;;;;;;;;;;5019420;28;20091;-59
2021/06/06 13:14:17;;;;;;;2.10;1.63;;;;;;;;;;5012768;28;20057;-67
2021/06/06 13:16:58;;;;;;;3.58;1.75;;;;;;;;;;5014126;28;20038;-62
2021/06/06 13:19:24;;;;;;;7.35;1.85;;;;;;;;;;5016005;28;20045;-60
2021/06/06 13:22:06;;;;;;;2.65;1.80;;;;;;;;;;5007973;28;20061;-60
2021/06/06 13:24:40;;;;;;;6.85;2.35;;;;;;;;;;5009821;28;20033;-61
2021/06/06 13:27:08;;;;;;;4.77;1.47;;;;;;;;;;5009360;28;20033;-61
2021/06/06 13:29:39;;;;;;;7.78;1.95;;;;;;;;;;5012892;28;20041;-60
2021/06/06 13:32:13;;;;;;;4.13;1.85;;;;;;;;;;5011593;28;20033;-62
2021/06/06 13:34:40;;;;;;;6.97;2.05;;;;;;;;;;5015236;28;20131;-61
2021/06/06 13:37:07;;;;;;;4.20;1.98;;;;;;;;;;5016528;28;20379;-60
2021/06/06 13:39:35;;;;;;;4.35;2.15;;;;;;;;;;5011928;28;20048;-61
2021/06/06 13:42:02;;;;;;;2.53;1.90;;;;;;;;;;5016005;28;20176;-62
2021/06/06 13:44:28;;;;;;;12.63;2.10;;;;;;;;;;5018398;28;20056;-65
2021/06/06 13:46:58;;;;;;;6.30;1.80;;;;;;;;;;5012665;28;20075;-62
2021/06/06 13:49:24;;;;;;;2.17;1.90;;;;;;;;;;5012707;28;20090;-65
2021/06/06 13:51:51;;;;;;;1.83;1.73;;;;;;;;;;5014108;28;20033;-64
2021/06/06 13:54:17;;;;;;;3.15;1.70;;;;;;;;;;5014579;28;20405;-64
2021/06/06 13:56:43;;;;;;;3.83;1.58;;;;;;;;;;5011363;28;20543;-64
2021/06/06 13:59:09;;;;;;;2.58;1.90;;;;;;;;;;5015960;28;20030;-65
2021/06/06 14:01:37;;;;;;;6.22;2.22;;;;;;;;;;5009275;28;20481;-65
2021/06/06 14:04:03;;;;;;;3.42;1.92;;;;;;;;;;5016818;28;20049;-65
2021/06/06 14:06:29;;;;;;;4.68;1.55;;;;;;;;;;5010829;28;20029;-64
2021/06/06 14:08:55;;;;;;;4.10;2.03;;;;;;;;;;5012197;28;20040;-66
2021/06/06 14:11:25;;;;;;;1.48;1.35;;;;;;;;;;5015013;28;20037;-64
2021/06/06 14:13:52;;;;;;;3.78;1.77;;;;;;;;;;5010729;28;20033;-64
2021/06/06 14:16:21;;;;;;;3.95;1.63;;;;;;;;;;5009945;28;20029;-65
2021/06/06 14:18:48;;;;;;;1.45;1.15;;;;;;;;;;5014205;28;20033;-64
2021/06/06 14:21:15;;;;;;;2.45;1.70;;;;;;;;;;5015591;28;20404;-66
2021/06/06 14:23:42;;;;;;;2.85;2.00;;;;;;;;;;5008356;28;20490;-66
2021/06/06 14:26:08;;;;;;;3.13;2.55;;;;;;;;;;5011764;28;20060;-62
2021/06/06 14:28:34;;;;;;;11.15;5.28;;;;;;;;;;5011873;28;20284;-63
2021/06/06 14:31:01;;;;;;;7.00;4.72;;;;;;;;;;5014796;28;20543;-62
2021/06/06 14:33:29;;;;;;;4.03;3.72;;;;;;;;;;5012328;28;20049;-62
2021/06/06 14:35:57;;;;;;;7.07;3.22;;;;;;;;;;5009752;28;20569;-62
2021/06/06 14:38:23;;;;;;;3.22;2.60;;;;;;;;;;5011554;28;20034;-63
2021/06/06 14:40:50;;;;;;;4.45;2.92;;;;;;;;;;5011919;28;20203;-62
2021/06/06 14:43:18;;;;;;;14.30;11.38;;;;;;;;;;5012185;28;20373;-62
2021/06/06 14:45:45;;;;;;;58.15;52.05;;;;;;;;;;5011594;28;20054;-62
2021/06/06 14:48:12;;;;;;;49.22;41.97;;;;;;;;;;5012558;28;20021;-62
2021/06/06 14:50:38;;;;;;;35.22;30.20;;;;;;;;;;5012319;28;20029;-61
2021/06/06 14:53:05;;;;;;;30.42;25.52;;;;;;;;;;5010578;28;20080;-61